createdAt,value
2023-05-09T00:01:59.609Z,2.40
2023-05-09T00:04:26.863Z,2.10
2023-05-09T00:06:53.988Z,2.10
2023-05-09T00:09:21.083Z,2.40
2023-05-09T00:11:48.124Z,2.60
2023-05-09T00:14:15.167Z,2.50
2023-05-09T00:16:42.224Z,2.80
2023-05-09T00:19:10.099Z,2.90
2023-05-09T00:21:37.128Z,2.60
2023-05-09T00:24:04.397Z,2.70
2023-05-09T00:26:31.359Z,2.50
2023-05-09T00:28:58.408Z,2.50
2023-05-09T00:31:25.510Z,2.20
2023-05-09T00:33:54.257Z,2.60
2023-05-09T00:36:21.562Z,2.30
2023-05-09T00:38:49.250Z,2.60
2023-05-09T00:41:16.268Z,2.30
2023-05-09T00:43:43.295Z,2.80
2023-05-09T00:46:10.489Z,2.70
2023-05-09T00:48:37.564Z,2.50
2023-05-09T00:51:05.150Z,2.30
2023-05-09T00:53:32.158Z,2.30
2023-05-09T00:55:59.709Z,2.20
2023-05-09T00:58:26.703Z,2.20
2023-05-09T01:00:53.697Z,2.20
2023-05-09T01:03:20.781Z,2.10
2023-05-09T01:05:53.100Z,2.20
2023-05-09T01:08:52.681Z,2.30
2023-05-09T01:11:24.194Z,2.00
2023-05-09T01:14:00.736Z,2.10
2023-05-09T01:17:09.526Z,2.00
2023-05-09T01:19:58.049Z,2.00
2023-05-09T01:22:30.062Z,2.30
2023-05-09T01:25:38.899Z,2.40
2023-05-09T01:28:13.155Z,2.90
2023-05-09T01:30:42.279Z,3.30
2023-05-09T01:33:09.284Z,2.70
2023-05-09T01:35:37.317Z,3.10
2023-05-09T01:38:10.553Z,2.90
2023-05-09T01:40:37.616Z,2.80
2023-05-09T01:43:07.281Z,2.90
2023-05-09T01:45:34.456Z,3.00
2023-05-09T01:48:01.536Z,2.50
2023-05-09T01:50:32.963Z,2.10
2023-05-09T01:53:00.008Z,1.80
2023-05-09T01:55:28.971Z,2.00
2023-05-09T03:01:39.874Z,2.30
2023-05-09T03:04:08.995Z,2.50
2023-05-09T03:06:36.502Z,2.20
2023-05-09T03:09:03.727Z,2.40
2023-05-09T03:11:31.130Z,1.90
2023-05-09T03:13:58.409Z,2.40
2023-05-09T03:16:25.526Z,2.10
2023-05-09T03:18:52.598Z,2.60
2023-05-09T03:21:19.607Z,2.40
2023-05-09T03:23:46.667Z,2.50
2023-05-09T03:26:13.655Z,2.80
2023-05-09T03:28:41.044Z,2.90
2023-05-09T03:31:08.124Z,2.90
2023-05-09T03:33:35.188Z,2.60
2023-05-09T03:36:02.694Z,2.10
2023-05-09T03:38:29.781Z,2.50
2023-05-09T03:40:56.961Z,2.30
2023-05-09T03:43:24.046Z,2.40
2023-05-09T03:45:51.132Z,2.80
2023-05-09T03:48:18.296Z,2.70
2023-05-09T03:50:49.208Z,2.90
2023-05-09T03:53:16.369Z,2.60
2023-05-09T03:55:44.486Z,2.50
2023-05-09T03:58:12.694Z,2.60
2023-05-09T04:00:41.292Z,2.50
2023-05-09T04:03:11.084Z,2.90
2023-05-09T04:05:41.113Z,3.00
2023-05-09T04:08:12.649Z,3.00
2023-05-09T04:10:39.637Z,3.40
2023-05-09T04:13:06.752Z,3.20
2023-05-09T04:15:34.922Z,3.40
2023-05-09T04:18:02.355Z,4.00
2023-05-09T04:20:29.503Z,3.30
2023-05-09T04:22:57.335Z,3.30
2023-05-09T04:25:24.741Z,3.70
2023-05-09T04:27:52.018Z,3.40
2023-05-09T04:30:19.133Z,2.90
2023-05-09T04:32:47.032Z,2.80
2023-05-09T04:35:14.698Z,2.30
2023-05-09T04:37:44.672Z,2.70
2023-05-09T04:40:12.394Z,2.00
2023-05-09T04:42:44.118Z,2.70
2023-05-09T04:45:12.095Z,4.50
2023-05-09T04:47:39.317Z,3.20
2023-05-09T04:50:08.277Z,2.50
2023-05-09T04:52:35.422Z,2.40
2023-05-09T04:55:02.642Z,3.90
2023-05-09T04:57:32.993Z,2.50
2023-05-09T05:00:00.027Z,2.10
2023-05-09T05:02:27.516Z,1.90
2023-05-09T05:05:06.205Z,2.00
2023-05-09T05:07:38.549Z,2.20
2023-05-09T05:10:06.716Z,2.00
2023-05-09T05:12:34.734Z,5.10
2023-05-09T05:15:02.287Z,2.70
2023-05-09T05:17:29.836Z,3.00
2023-05-09T05:19:58.320Z,2.90
2023-05-09T05:22:27.163Z,2.10
2023-05-09T05:24:54.211Z,2.10
2023-05-09T05:27:21.721Z,2.40
2023-05-09T05:29:49.020Z,12.40
2023-05-09T05:32:16.143Z,3.50
2023-05-09T05:34:43.225Z,3.50
2023-05-09T05:37:10.729Z,2.20
2023-05-09T05:39:37.851Z,2.10
2023-05-09T05:42:04.992Z,2.40
2023-05-09T05:44:32.083Z,1.90
2023-05-09T05:46:59.167Z,2.00
2023-05-09T05:49:26.753Z,1.90
2023-05-09T05:51:53.812Z,2.50
2023-05-09T05:54:22.135Z,7.50
2023-05-09T05:56:49.269Z,2.50
2023-05-09T05:59:16.501Z,1.90
2023-05-09T06:01:43.815Z,2.10
2023-05-09T06:04:10.975Z,1.70
2023-05-09T06:06:38.057Z,2.30
2023-05-09T06:09:05.122Z,6.80
2023-05-09T06:11:32.184Z,4.10
2023-05-09T06:13:59.469Z,3.40
2023-05-09T06:16:28.194Z,7.70
2023-05-09T06:18:56.063Z,2.20
2023-05-09T06:21:23.873Z,1.90
2023-05-09T06:24:06.435Z,4.00
2023-05-09T06:26:37.211Z,2.00
2023-05-09T06:29:06.247Z,2.00
2023-05-09T06:31:36.148Z,2.10
2023-05-09T06:34:03.180Z,1.90
2023-05-09T06:36:30.874Z,1.90
2023-05-09T06:38:58.128Z,2.00
2023-05-09T06:41:25.135Z,2.20
2023-05-09T06:43:55.239Z,1.90
2023-05-09T06:46:22.341Z,2.10
2023-05-09T06:48:49.473Z,2.20
2023-05-09T06:51:16.872Z,2.30
2023-05-09T06:53:43.906Z,2.10
2023-05-09T06:56:10.967Z,1.90
2023-05-09T06:58:37.980Z,2.10
2023-05-09T07:01:05.307Z,2.60
2023-05-09T07:03:32.300Z,2.40
2023-05-09T07:06:00.126Z,2.70
2023-05-09T07:08:27.482Z,2.60
2023-05-09T07:10:54.478Z,2.60
2023-05-09T07:13:21.599Z,2.60
2023-05-09T07:15:48.920Z,2.90
2023-05-09T07:18:16.013Z,3.40
2023-05-09T07:20:43.021Z,3.40
2023-05-09T07:23:10.026Z,4.30
2023-05-09T07:25:37.016Z,3.60
2023-05-09T07:28:04.202Z,4.10
2023-05-09T07:30:31.261Z,3.90
2023-05-09T07:32:58.361Z,4.10
2023-05-09T07:35:25.462Z,3.80
2023-05-09T07:37:52.458Z,3.50
2023-05-09T07:40:19.530Z,3.90
2023-05-09T07:42:50.123Z,3.50
2023-05-09T07:45:18.816Z,3.80
2023-05-09T07:47:47.195Z,3.10
2023-05-09T07:50:14.197Z,2.60
2023-05-09T07:52:41.265Z,2.50
2023-05-09T07:55:08.729Z,2.40
2023-05-09T07:57:35.878Z,2.40
2023-05-09T08:00:02.871Z,2.70
2023-05-09T08:02:40.896Z,2.20
2023-05-09T08:05:11.734Z,2.10
2023-05-09T08:07:38.896Z,2.50
2023-05-09T08:10:07.238Z,2.00
2023-05-09T08:12:34.259Z,2.70
2023-05-09T08:15:01.347Z,2.20
2023-05-09T08:17:28.459Z,2.30
2023-05-09T08:19:55.694Z,2.20
2023-05-09T08:22:22.705Z,2.00
2023-05-09T08:24:49.698Z,2.30
2023-05-09T08:27:16.791Z,2.00
2023-05-09T08:29:43.866Z,2.00
2023-05-09T08:32:10.919Z,2.20
2023-05-09T08:34:38.038Z,2.10
2023-05-09T08:37:05.077Z,2.10
2023-05-09T08:39:32.138Z,2.00
2023-05-09T08:42:00.013Z,1.80
2023-05-09T08:44:28.284Z,2.20
2023-05-09T08:46:56.892Z,2.00
2023-05-09T08:49:24.027Z,2.10
2023-05-09T08:51:51.143Z,1.70
2023-05-09T08:54:20.700Z,1.70
2023-05-09T08:56:49.604Z,1.60
2023-05-09T08:59:17.212Z,1.70
2023-05-09T09:01:44.338Z,1.80
2023-05-09T09:04:14.359Z,1.80
2023-05-09T09:06:41.771Z,1.80
2023-05-09T09:09:09.353Z,1.80
2023-05-09T09:11:36.681Z,1.70
2023-05-09T09:14:12.190Z,1.60
2023-05-09T09:16:39.557Z,1.80
2023-05-09T09:19:07.190Z,1.90
2023-05-09T09:21:34.263Z,1.90
2023-05-09T09:24:01.250Z,2.00
2023-05-09T09:26:31.926Z,1.90
2023-05-09T09:28:58.995Z,2.40
2023-05-09T09:31:27.870Z,2.00
2023-05-09T09:34:05.024Z,2.00
2023-05-09T09:36:36.906Z,2.20
2023-05-09T09:39:07.664Z,2.50
2023-05-09T09:41:38.973Z,2.30
2023-05-09T09:44:09.621Z,2.50
2023-05-09T09:46:54.877Z,2.60
2023-05-09T09:49:26.421Z,2.20
2023-05-09T09:51:54.972Z,2.50
2023-05-09T09:54:22.184Z,2.10
2023-05-09T09:56:51.161Z,1.90
2023-05-09T09:59:21.025Z,1.70
2023-05-09T10:01:58.736Z,1.80
2023-05-09T10:04:29.458Z,1.80
2023-05-09T10:07:05.266Z,1.80
2023-05-09T10:09:33.503Z,1.40
2023-05-09T10:12:06.565Z,1.50
2023-05-09T10:14:35.613Z,1.50
2023-05-09T10:17:04.393Z,1.60
2023-05-09T10:19:32.196Z,1.30
2023-05-09T10:22:04.576Z,1.30
2023-05-09T10:24:40.130Z,1.60
2023-05-09T10:27:12.313Z,1.30
2023-05-09T10:29:45.076Z,1.40
2023-05-09T10:32:24.029Z,1.50
2023-05-09T10:34:53.461Z,1.50
2023-05-09T10:37:23.491Z,1.30
2023-05-09T10:39:53.775Z,1.50
2023-05-09T10:42:21.077Z,1.50
2023-05-09T10:44:48.440Z,1.60
2023-05-09T10:47:15.684Z,1.60
2023-05-09T10:49:43.573Z,1.50
2023-05-09T10:52:10.720Z,1.60
2023-05-09T10:54:37.702Z,1.70
2023-05-09T10:57:06.695Z,1.80
2023-05-09T10:59:35.936Z,1.80
2023-05-09T11:02:03.782Z,1.50
2023-05-09T11:04:32.184Z,1.70
2023-05-09T11:07:00.387Z,1.50
2023-05-09T11:09:35.144Z,1.60
2023-05-09T11:12:05.341Z,1.50
2023-05-09T11:14:42.498Z,1.50
2023-05-09T11:17:29.326Z,1.50
2023-05-09T11:20:01.235Z,1.80
2023-05-09T11:22:32.499Z,1.50
2023-05-09T11:25:01.299Z,1.40
2023-05-09T11:27:29.185Z,1.30
2023-05-09T11:29:57.722Z,1.70
2023-05-09T11:32:29.068Z,1.80
2023-05-09T11:35:15.361Z,1.60
2023-05-09T11:37:58.439Z,1.80
2023-05-09T11:40:25.536Z,1.60
2023-05-09T11:42:57.024Z,1.60
2023-05-09T11:45:30.054Z,1.50
2023-05-09T11:47:57.572Z,1.70
2023-05-09T11:50:24.792Z,1.60
2023-05-09T11:52:52.189Z,1.50
2023-05-09T11:55:22.296Z,1.40
2023-05-09T11:57:53.370Z,1.50
2023-05-09T12:00:24.886Z,1.60
2023-05-09T12:02:52.954Z,1.60
2023-05-09T12:05:21.685Z,1.40
2023-05-09T12:07:49.047Z,1.40
2023-05-09T12:10:21.050Z,1.50
2023-05-09T12:12:49.529Z,1.30
2023-05-09T12:15:17.376Z,1.50
2023-05-09T12:17:45.236Z,1.60
2023-05-09T12:20:12.568Z,1.30
2023-05-09T12:22:43.427Z,1.60
2023-05-09T12:25:11.636Z,1.50
2023-05-09T12:27:39.660Z,1.70
2023-05-09T12:30:12.171Z,1.60
2023-05-09T12:32:40.610Z,1.50
2023-05-09T12:35:09.771Z,1.60
2023-05-09T12:37:37.078Z,1.50
2023-05-09T12:40:10.098Z,1.90
2023-05-09T12:42:37.180Z,1.60
2023-05-09T12:45:05.039Z,1.50
2023-05-09T12:47:32.598Z,1.50
2023-05-09T12:50:00.839Z,1.60
2023-05-09T12:52:54.703Z,1.50
2023-05-09T12:55:28.912Z,1.70
2023-05-09T12:58:01.002Z,1.50
2023-05-09T13:00:28.040Z,1.60
2023-05-09T13:02:55.254Z,1.60
2023-05-09T13:05:24.586Z,1.40
2023-05-09T13:07:54.953Z,1.50
2023-05-09T13:10:27.718Z,1.50
2023-05-09T13:12:54.961Z,1.70
2023-05-09T13:15:22.847Z,1.60
2023-05-09T13:17:51.105Z,1.40
2023-05-09T13:20:19.102Z,1.80
2023-05-09T13:22:46.720Z,1.70
2023-05-09T13:25:13.873Z,1.70
2023-05-09T13:27:41.360Z,1.80
2023-05-09T13:30:08.712Z,1.60
2023-05-09T13:32:36.823Z,1.80
2023-05-09T13:35:06.960Z,1.70
2023-05-09T13:37:34.904Z,1.90
2023-05-09T13:40:02.656Z,1.70
2023-05-09T13:42:29.630Z,1.50
2023-05-09T13:44:56.773Z,1.50
2023-05-09T13:47:23.783Z,1.70
2023-05-09T13:49:50.807Z,1.90
2023-05-09T13:52:17.837Z,1.40
2023-05-09T13:54:45.021Z,1.90
2023-05-09T13:57:12.053Z,1.50
2023-05-09T13:59:41.362Z,1.70
2023-05-09T14:02:08.490Z,1.90
2023-05-09T14:04:35.600Z,1.70
2023-05-09T14:07:02.698Z,1.40
2023-05-09T14:09:29.715Z,1.60
2023-05-09T14:11:57.318Z,1.60
2023-05-09T14:14:25.190Z,1.50
2023-05-09T14:16:52.292Z,1.40
2023-05-09T14:19:19.343Z,1.40
2023-05-09T14:21:49.226Z,1.50
2023-05-09T14:24:16.586Z,1.50
2023-05-09T14:26:43.982Z,1.90
2023-05-09T14:29:11.166Z,2.10
2023-05-09T14:31:38.509Z,2.10
2023-05-09T14:34:06.527Z,1.80
2023-05-09T14:36:33.553Z,1.90
2023-05-09T14:39:00.588Z,1.60
2023-05-09T14:41:27.637Z,1.50
2023-05-09T14:43:54.721Z,1.80
2023-05-09T14:46:21.751Z,1.80
2023-05-09T14:48:48.799Z,1.90
2023-05-09T14:51:15.826Z,1.60
2023-05-09T14:53:42.879Z,1.70
2023-05-09T14:56:11.661Z,1.80
2023-05-09T14:58:38.828Z,2.10
2023-05-09T15:01:05.921Z,1.70
2023-05-09T15:03:33.019Z,1.60
2023-05-09T15:06:00.166Z,1.90
2023-05-09T15:08:27.356Z,8.80
2023-05-09T15:10:54.656Z,5.70
2023-05-09T15:13:21.853Z,10.20
2023-05-09T15:15:49.094Z,5.00
2023-05-09T15:19:08.633Z,2.10
2023-05-09T15:21:35.900Z,3.00
2023-05-09T15:24:03.710Z,1.90
2023-05-09T15:26:30.793Z,2.00
2023-05-09T15:28:57.977Z,2.00
2023-05-09T15:31:25.957Z,2.40
2023-05-09T15:33:53.058Z,4.60
2023-05-09T15:36:20.134Z,4.20
2023-05-09T15:38:49.745Z,3.40
2023-05-09T15:41:17.178Z,2.70
2023-05-09T15:43:44.352Z,2.60
2023-05-09T15:46:11.552Z,2.30
2023-05-09T15:48:38.747Z,2.50
2023-05-09T15:51:05.927Z,2.50
2023-05-09T15:53:32.941Z,2.10
2023-05-09T15:56:00.661Z,2.90
2023-05-09T15:58:27.681Z,2.60
2023-05-09T16:00:54.812Z,2.30
2023-05-09T16:03:22.180Z,2.20
2023-05-09T16:05:49.417Z,1.90
2023-05-09T16:08:17.267Z,1.80
2023-05-09T16:10:44.565Z,1.90
2023-05-09T16:13:11.827Z,2.00
2023-05-09T16:15:38.899Z,2.00
2023-05-09T16:18:05.979Z,1.90
2023-05-09T16:20:33.081Z,2.20
2023-05-09T16:23:00.106Z,1.90
2023-05-09T16:25:27.634Z,2.00
2023-05-09T16:27:54.620Z,2.10
2023-05-09T16:30:21.656Z,1.80
2023-05-09T16:32:48.841Z,2.10
2023-05-09T16:35:15.998Z,1.80
2023-05-09T16:37:43.075Z,2.20
2023-05-09T16:40:11.033Z,1.60
2023-05-09T16:42:41.452Z,1.80
2023-05-09T16:45:10.137Z,1.80
2023-05-09T16:47:37.235Z,1.90
2023-05-09T16:50:05.057Z,1.70
2023-05-09T16:52:32.131Z,1.70
2023-05-09T16:54:59.699Z,1.80
2023-05-09T16:57:26.658Z,1.70
2023-05-09T16:59:54.157Z,1.70
2023-05-09T17:02:21.229Z,1.80
2023-05-09T17:04:48.939Z,1.60
2023-05-09T17:07:16.373Z,1.80
2023-05-09T17:09:43.464Z,1.50
2023-05-09T17:12:16.577Z,1.70
2023-05-09T17:17:11.417Z,1.60
2023-05-09T17:19:38.492Z,1.80
2023-05-09T17:22:06.024Z,1.80
2023-05-09T17:24:33.077Z,1.90
2023-05-09T17:27:00.058Z,1.80
2023-05-09T17:29:29.633Z,2.10
2023-05-09T17:31:57.549Z,1.90
2023-05-09T17:34:24.715Z,1.90
2023-05-09T17:36:52.573Z,1.80
2023-05-09T17:39:19.961Z,1.80
2023-05-09T17:41:47.439Z,1.90
2023-05-09T17:44:15.300Z,1.90
2023-05-09T17:46:42.623Z,1.90
2023-05-09T17:49:11.217Z,1.90
2023-05-09T17:51:38.194Z,1.70
2023-05-09T17:54:05.829Z,1.90
2023-05-09T17:56:32.812Z,2.10
2023-05-09T17:58:59.874Z,2.10
2023-05-09T18:01:27.060Z,2.00
2023-05-09T18:03:54.364Z,2.30
2023-05-09T18:06:21.603Z,2.70
2023-05-09T18:08:49.873Z,3.00
2023-05-09T18:11:16.918Z,2.70
2023-05-09T18:13:43.971Z,2.60
2023-05-09T18:16:11.046Z,2.50
2023-05-09T18:18:40.196Z,2.50
2023-05-09T18:21:09.387Z,2.40
2023-05-09T18:23:37.580Z,2.10
2023-05-09T18:26:04.803Z,2.10
2023-05-09T18:28:39.374Z,2.20
2023-05-09T18:31:07.927Z,2.20
2023-05-09T18:33:40.697Z,2.70
2023-05-09T18:36:09.804Z,2.20
2023-05-09T18:38:38.697Z,2.40
2023-05-09T18:41:07.204Z,3.30
2023-05-09T18:43:35.544Z,3.60
2023-05-09T18:46:05.543Z,2.80
2023-05-09T18:48:33.189Z,2.90
2023-05-09T18:51:00.245Z,2.90
2023-05-09T18:53:29.036Z,3.00
2023-05-09T18:55:59.243Z,2.60
2023-05-09T18:58:26.288Z,2.80
2023-05-09T19:00:55.830Z,2.80
2023-05-09T19:03:25.436Z,2.50
2023-05-09T19:05:52.469Z,2.40
2023-05-09T19:08:19.687Z,2.10
2023-05-09T19:10:46.791Z,2.30
2023-05-09T19:13:16.047Z,2.20
2023-05-09T19:15:43.632Z,2.10
2023-05-09T19:18:10.849Z,2.00
2023-05-09T19:20:41.102Z,2.30
2023-05-09T19:23:08.289Z,2.10
2023-05-09T19:25:37.036Z,2.10
2023-05-09T19:28:04.419Z,2.20
2023-05-09T19:30:31.488Z,2.20
2023-05-09T19:32:58.681Z,2.40
2023-05-09T19:35:25.904Z,2.30
2023-05-09T19:37:52.951Z,2.30
2023-05-09T19:40:20.194Z,2.20
2023-05-09T19:42:47.187Z,2.20
2023-05-09T19:45:14.321Z,1.90
2023-05-09T19:47:41.908Z,2.30
2023-05-09T19:50:09.517Z,2.30
2023-05-09T19:52:37.455Z,2.50
2023-05-09T19:55:06.171Z,2.70
2023-05-09T19:57:33.452Z,2.30
2023-05-09T20:00:00.445Z,2.40
2023-05-09T20:02:27.509Z,2.30
2023-05-09T20:04:54.626Z,2.70
2023-05-09T20:07:21.619Z,2.20
2023-05-09T20:09:49.010Z,2.20
2023-05-09T20:12:16.824Z,2.10
2023-05-09T20:14:44.612Z,2.00
2023-05-09T20:17:11.630Z,2.10
2023-05-09T20:19:38.927Z,2.10
2023-05-09T20:22:06.789Z,2.40
2023-05-09T20:24:33.878Z,2.20
2023-05-09T20:27:02.731Z,2.20
2023-05-09T20:29:29.705Z,2.30
2023-05-09T20:31:56.737Z,2.10
2023-05-09T20:34:24.946Z,2.20
2023-05-09T20:36:55.269Z,2.40
2023-05-09T20:39:23.273Z,2.20
2023-05-09T20:41:50.572Z,2.30
2023-05-09T20:44:18.161Z,2.50
2023-05-09T20:46:45.679Z,2.30
2023-05-09T20:49:12.857Z,2.30
2023-05-09T20:51:39.995Z,2.40
2023-05-09T20:54:07.144Z,2.70
2023-05-09T20:56:35.645Z,2.80
2023-05-09T20:59:04.381Z,2.40
2023-05-09T21:01:32.684Z,2.40
2023-05-09T21:03:59.791Z,3.00
2023-05-09T21:06:26.784Z,2.40
2023-05-09T21:08:53.781Z,2.70
2023-05-09T21:11:22.171Z,2.80
2023-05-09T21:13:49.269Z,2.50
2023-05-09T21:16:16.507Z,2.80
2023-05-09T21:18:43.512Z,2.80
2023-05-09T21:21:10.518Z,2.90
2023-05-09T21:23:37.495Z,3.50
2023-05-09T21:26:04.495Z,3.30
2023-05-09T21:28:31.629Z,3.50
2023-05-09T21:31:00.923Z,3.60
2023-05-09T21:33:28.179Z,3.50
2023-05-09T21:35:55.133Z,3.60
2023-05-09T21:38:22.208Z,3.70
2023-05-09T21:40:51.439Z,3.30
2023-05-09T21:43:19.571Z,3.50
2023-05-09T21:45:46.568Z,3.40
2023-05-09T21:48:13.684Z,3.00
2023-05-09T21:50:40.842Z,2.80
2023-05-09T21:53:07.836Z,3.10
2023-05-09T21:55:34.860Z,3.20
2023-05-09T21:58:01.883Z,2.80
2023-05-09T22:00:28.841Z,2.70
2023-05-09T22:02:56.024Z,3.00
2023-05-09T22:05:23.937Z,2.80
2023-05-09T22:07:51.756Z,3.30
2023-05-09T22:10:18.924Z,3.20
2023-05-09T22:12:46.284Z,3.20
2023-05-09T22:15:13.401Z,3.80
2023-05-09T22:17:40.894Z,3.70
2023-05-09T22:20:09.361Z,3.90
2023-05-09T22:22:36.436Z,4.00
2023-05-09T22:25:06.771Z,4.70
2023-05-09T22:27:33.706Z,5.20
2023-05-09T22:30:01.623Z,4.80
2023-05-09T22:32:28.668Z,5.40
2023-05-09T22:34:55.705Z,5.80
2023-05-09T22:37:23.722Z,6.20
2023-05-09T22:39:51.368Z,6.70
2023-05-09T22:42:18.362Z,5.90
2023-05-09T22:44:47.434Z,6.10
2023-05-09T22:47:14.550Z,5.90
2023-05-09T22:49:42.623Z,5.90
2023-05-09T22:52:11.008Z,6.10
2023-05-09T22:54:38.051Z,5.90
2023-05-09T22:57:05.089Z,6.10
2023-05-09T22:59:32.390Z,5.80
2023-05-09T23:01:59.632Z,5.50
2023-05-09T23:04:26.741Z,5.40
2023-05-09T23:06:53.784Z,5.10
2023-05-09T23:09:20.755Z,4.60
2023-05-09T23:11:48.003Z,4.60
2023-05-09T23:14:15.033Z,4.70
2023-05-09T23:16:42.084Z,4.30
2023-05-09T23:19:09.408Z,3.90
2023-05-09T23:21:36.426Z,4.10
2023-05-09T23:24:03.625Z,4.50
2023-05-09T23:26:30.651Z,4.60
2023-05-09T23:28:57.664Z,4.30
2023-05-09T23:31:24.763Z,4.80
2023-05-09T23:33:51.812Z,4.90
2023-05-09T23:36:18.837Z,4.60
2023-05-09T23:38:45.812Z,4.50
2023-05-09T23:41:12.884Z,4.80
2023-05-09T23:43:39.903Z,3.80
2023-05-09T23:46:07.073Z,4.30
2023-05-09T23:48:34.141Z,4.30
2023-05-09T23:51:01.177Z,3.90
2023-05-09T23:53:28.160Z,3.70
2023-05-09T23:55:55.316Z,3.60
2023-05-09T23:58:22.385Z,3.80
